08XA weather

Public forecast

Using degrees Fahrenheit for public forecast. Weather courtesy of forecast.io.

Closest aviation weather report (METAR) to Knolle Ranch Airport

Closest report is Easterwood Field, 9.8 nm (18.1 km) NE. Retrieved 2020/08/12 00:53 UTC (12 minutes ago):

KCLL 120053Z 16008KT 10SM CLR 34/22 A2989 RMK AO2 SLP116 T03390217

Closest aviation forecast (TAF) to Knolle Ranch Airport

Closest forecast is Easterwood Field, 9.8 nm (18.1 km) NE. Retrieved 2020-08-12 00:22 UTC (43 minutes ago):

TAF KCLL 112320Z 1200/1224 15010KT P6SM FEW060 FEW080 FM120900 18005KT P6SM SCT020 FM121500 21010KT P6SM SCT035 FM122000 18009KT P6SM FEW250